createdAt,value
2022-08-26T00:00:25.106Z,31.73
2022-08-26T00:00:57.653Z,20.45
2022-08-26T00:01:32.490Z,15.95
2022-08-26T00:02:07.472Z,10.90
2022-08-26T00:02:42.748Z,19.88
2022-08-26T00:03:15.682Z,9.73
2022-08-26T00:03:51.619Z,14.15
2022-08-26T00:04:25.842Z,16.70
2022-08-26T00:04:58.279Z,39.75
2022-08-26T00:05:33.242Z,18.65
2022-08-26T00:06:06.022Z,22.52
2022-08-26T00:06:38.544Z,19.67
2022-08-26T00:07:17.576Z,18.15
2022-08-26T00:07:50.412Z,11.95
2022-08-26T00:08:23.637Z,15.30
2022-08-26T00:08:58.428Z,11.57
2022-08-26T00:09:30.745Z,21.23
2022-08-26T00:10:05.839Z,21.92
2022-08-26T00:10:38.822Z,17.23
2022-08-26T00:11:14.108Z,10.50
2022-08-26T00:11:47.252Z,18.40
2022-08-26T00:12:19.546Z,13.05
2022-08-26T00:13:07.499Z,19.83
2022-08-26T00:13:41.470Z,19.30
2022-08-26T00:14:20.591Z,22.77
2022-08-26T00:14:55.427Z,22.33
2022-08-26T00:15:27.981Z,12.25
2022-08-26T00:16:01.250Z,21.55
2022-08-26T00:16:37.294Z,15.52
2022-08-26T00:17:13.658Z,15.30
2022-08-26T00:17:50.139Z,10.93
2022-08-26T00:18:24.969Z,19.08
2022-08-26T00:18:58.225Z,14.00
2022-08-26T00:19:30.394Z,11.57
2022-08-26T00:20:06.059Z,15.90
2022-08-26T00:20:39.986Z,22.75
2022-08-26T00:21:15.444Z,18.98
2022-08-26T00:21:51.556Z,17.25
2022-08-26T00:22:23.726Z,13.25
2022-08-26T00:22:56.967Z,17.48
2022-08-26T00:23:31.769Z,11.60
2022-08-26T00:24:04.143Z,10.60
2022-08-26T00:24:36.417Z,15.50
2022-08-26T00:25:10.280Z,15.80
2022-08-26T00:25:44.982Z,13.30
2022-08-26T00:26:17.661Z,17.95
2022-08-26T00:26:50.788Z,21.13
2022-08-26T00:27:26.506Z,64.70
2022-08-26T00:28:01.241Z,15.30
2022-08-26T00:28:34.130Z,10.05
2022-08-26T00:29:09.432Z,16.90
2022-08-26T00:29:41.667Z,37.53
2022-08-26T00:30:22.746Z,18.52
2022-08-26T00:30:56.359Z,24.23
2022-08-26T00:31:28.917Z,16.10
2022-08-26T00:32:06.682Z,8.50
2022-08-26T00:32:38.986Z,22.27
2022-08-26T00:33:14.778Z,13.77
2022-08-26T00:33:49.532Z,24.85
2022-08-26T00:34:22.002Z,19.30
2022-08-26T00:34:54.299Z,29.65
2022-08-26T00:35:28.297Z,27.50
2022-08-26T00:36:03.186Z,43.60
2022-08-26T00:36:36.840Z,15.38
2022-08-26T00:37:10.962Z,14.18
2022-08-26T00:37:49.630Z,13.52
2022-08-26T00:38:22.951Z,17.30
2022-08-26T00:38:55.148Z,18.83
2022-08-26T00:39:30.015Z,16.63
2022-08-26T00:40:05.244Z,21.25
2022-08-26T00:40:44.023Z,16.88
2022-08-26T00:41:22.049Z,15.27
2022-08-26T00:41:54.339Z,10.95
2022-08-26T00:42:27.803Z,21.40
2022-08-26T00:43:03.360Z,25.85
2022-08-26T00:43:46.184Z,13.25
2022-08-26T00:44:22.411Z,19.35
2022-08-26T00:44:54.799Z,25.92
2022-08-26T00:45:27.243Z,19.77
2022-08-26T00:46:08.972Z,17.75
2022-08-26T00:46:46.876Z,14.57
2022-08-26T00:47:24.710Z,13.75
2022-08-26T00:48:02.497Z,14.30
2022-08-26T00:48:40.136Z,13.18
2022-08-26T00:49:19.308Z,11.63
2022-08-26T00:49:54.749Z,20.42
2022-08-26T00:50:31.749Z,18.55
2022-08-26T00:51:12.542Z,15.43
2022-08-26T00:51:48.184Z,17.85
2022-08-26T00:52:21.962Z,21.73
2022-08-26T00:53:00.764Z,12.82
2022-08-26T00:53:39.727Z,15.00
2022-08-26T00:54:15.034Z,12.48
2022-08-26T00:54:55.744Z,17.92
2022-08-26T00:55:37.726Z,8.88
2022-08-26T00:56:18.529Z,9.88
2022-08-26T00:57:26.392Z,14.18
2022-08-26T00:58:01.568Z,11.95
2022-08-26T00:58:36.882Z,13.88
2022-08-26T00:59:12.151Z,9.30
2022-08-26T00:59:49.671Z,17.65
2022-08-26T01:00:26.114Z,25.05
2022-08-26T01:00:58.391Z,31.58
2022-08-26T01:01:33.273Z,17.10
2022-08-26T01:02:06.168Z,12.35
2022-08-26T01:02:38.895Z,14.50
2022-08-26T01:03:25.354Z,26.30
2022-08-26T01:04:01.021Z,21.35
2022-08-26T01:04:37.224Z,15.30
2022-08-26T01:05:14.209Z,28.65
2022-08-26T01:05:46.922Z,18.88
2022-08-26T01:06:19.926Z,18.52
2022-08-26T01:06:57.468Z,9.27
2022-08-26T01:07:31.811Z,20.17
2022-08-26T01:08:04.339Z,15.40
2022-08-26T01:08:39.406Z,18.63
2022-08-26T01:09:11.974Z,20.65
2022-08-26T01:09:44.326Z,17.25
2022-08-26T01:10:22.054Z,27.27
2022-08-26T01:10:55.803Z,21.08
2022-08-26T01:11:30.994Z,14.80
2022-08-26T01:12:04.202Z,17.23
2022-08-26T01:12:41.163Z,14.93
2022-08-26T01:13:16.392Z,15.98
2022-08-26T01:13:54.922Z,11.90
2022-08-26T01:14:31.454Z,17.42
2022-08-26T01:15:07.018Z,19.95
2022-08-26T01:15:47.625Z,24.65
2022-08-26T01:16:20.007Z,14.70
2022-08-26T01:16:55.194Z,16.48
2022-08-26T01:17:28.108Z,21.20
2022-08-26T01:18:03.023Z,15.05
2022-08-26T01:18:38.710Z,13.25
2022-08-26T01:19:19.641Z,15.70
2022-08-26T01:19:59.789Z,22.30
2022-08-26T01:20:41.587Z,9.70
2022-08-26T01:21:21.153Z,13.68
2022-08-26T01:22:00.859Z,17.90
2022-08-26T01:22:44.447Z,14.05
2022-08-26T01:23:17.585Z,14.45
2022-08-26T01:23:58.223Z,18.35
2022-08-26T01:24:31.138Z,15.45
2022-08-26T01:25:05.877Z,11.85
2022-08-26T01:25:46.428Z,11.60
2022-08-26T01:26:22.813Z,18.70
2022-08-26T01:26:58.339Z,13.43
2022-08-26T01:27:35.489Z,71.28
2022-08-26T01:28:13.882Z,18.75
2022-08-26T01:28:50.678Z,29.15
2022-08-26T01:29:27.958Z,12.48
2022-08-26T01:30:02.580Z,24.38
2022-08-26T01:30:37.764Z,21.08
2022-08-26T01:31:17.689Z,11.90
2022-08-26T01:31:55.409Z,15.15
2022-08-26T01:32:28.849Z,13.73
2022-08-26T01:33:05.210Z,16.30
2022-08-26T01:33:46.739Z,20.90
2022-08-26T01:34:22.341Z,19.27
2022-08-26T01:34:54.682Z,30.42
2022-08-26T01:35:30.404Z,19.38
2022-08-26T01:36:03.561Z,16.17
2022-08-26T01:36:37.197Z,20.48
2022-08-26T01:37:16.722Z,17.40
2022-08-26T01:37:55.039Z,20.45
2022-08-26T01:38:30.852Z,26.58
2022-08-26T01:39:05.919Z,10.23
2022-08-26T01:39:40.188Z,13.80
2022-08-26T01:40:22.981Z,11.63
2022-08-26T01:40:55.191Z,12.45
2022-08-26T01:41:29.116Z,22.05
2022-08-26T01:42:06.192Z,15.20
2022-08-26T01:42:43.300Z,13.30
2022-08-26T01:43:22.405Z,24.73
2022-08-26T01:43:57.924Z,18.55
2022-08-26T01:44:36.383Z,21.38
2022-08-26T01:45:18.500Z,14.07
2022-08-26T01:45:54.791Z,18.75
2022-08-26T01:46:29.914Z,20.42
2022-08-26T01:47:06.547Z,23.73
2022-08-26T01:47:40.007Z,28.83
2022-08-26T01:48:17.971Z,81.47
2022-08-26T01:48:54.743Z,25.30
2022-08-26T01:49:27.643Z,110.45
2022-08-26T01:50:04.222Z,54.28
2022-08-26T01:50:39.993Z,16.95
2022-08-26T01:51:14.077Z,20.75
2022-08-26T01:51:50.419Z,15.43
2022-08-26T01:52:28.440Z,23.20
2022-08-26T01:53:06.688Z,23.38
2022-08-26T01:53:41.742Z,19.67
2022-08-26T01:54:16.875Z,15.73
2022-08-26T01:54:54.585Z,19.30
2022-08-26T01:55:32.167Z,16.80
2022-08-26T01:56:09.094Z,15.43
2022-08-26T01:56:41.588Z,15.57
2022-08-26T01:57:15.701Z,25.70
2022-08-26T01:57:56.266Z,13.18
2022-08-26T01:58:39.156Z,19.95
2022-08-26T01:59:14.525Z,17.60
2022-08-26T01:59:52.158Z,16.83
2022-08-26T02:00:25.731Z,28.77
2022-08-26T02:01:00.197Z,12.10
2022-08-26T02:01:37.931Z,18.77
2022-08-26T02:02:10.354Z,11.65
2022-08-26T02:02:44.214Z,15.82
2022-08-26T02:03:18.352Z,18.55
2022-08-26T02:04:06.193Z,9.55
2022-08-26T02:04:43.576Z,14.25
2022-08-26T02:05:18.046Z,20.10
2022-08-26T02:05:56.830Z,17.77
2022-08-26T02:06:31.010Z,15.90
2022-08-26T02:07:05.326Z,26.23
2022-08-26T02:07:42.531Z,16.63
2022-08-26T02:08:24.633Z,11.45
2022-08-26T02:09:00.946Z,14.93
2022-08-26T02:09:38.417Z,14.23
2022-08-26T02:10:13.945Z,16.13
2022-08-26T02:10:46.537Z,24.75
2022-08-26T02:11:21.737Z,13.40
2022-08-26T02:11:54.656Z,16.77
2022-08-26T02:12:27.802Z,13.20
2022-08-26T02:13:02.894Z,16.65
2022-08-26T02:13:40.080Z,14.13
2022-08-26T02:14:18.758Z,10.52
2022-08-26T02:14:54.355Z,16.80
2022-08-26T02:15:26.794Z,29.50
2022-08-26T02:16:04.661Z,28.48
2022-08-26T02:16:43.115Z,10.27
2022-08-26T02:17:17.783Z,16.98
2022-08-26T02:17:55.962Z,24.10
2022-08-26T02:18:33.188Z,23.58
2022-08-26T02:19:09.578Z,14.88
2022-08-26T02:19:50.550Z,44.78
2022-08-26T02:20:22.904Z,15.07
2022-08-26T02:21:00.456Z,19.25
2022-08-26T02:21:33.229Z,17.73
2022-08-26T02:22:08.685Z,39.50
2022-08-26T02:22:45.217Z,14.02
2022-08-26T02:23:20.282Z,14.55
2022-08-26T02:23:59.725Z,12.25
2022-08-26T02:24:47.476Z,27.83
2022-08-26T02:25:27.998Z,13.35
2022-08-26T02:26:07.270Z,21.80
2022-08-26T02:26:42.447Z,27.67
2022-08-26T02:27:15.587Z,18.52
2022-08-26T02:27:48.010Z,17.50
2022-08-26T02:28:26.731Z,22.92
2022-08-26T02:29:02.765Z,12.45
2022-08-26T02:29:41.466Z,28.05
2022-08-26T02:30:20.398Z,16.80
2022-08-26T02:30:54.873Z,15.18
2022-08-26T02:31:27.930Z,12.43
2022-08-26T02:32:03.221Z,14.00
2022-08-26T02:32:35.630Z,21.27
2022-08-26T02:33:08.211Z,30.73
2022-08-26T02:33:43.368Z,22.50
2022-08-26T02:34:19.570Z,13.68
2022-08-26T02:34:52.208Z,25.13
2022-08-26T02:35:27.006Z,29.40
2022-08-26T02:35:59.315Z,19.35
2022-08-26T02:36:31.566Z,34.78
2022-08-26T02:37:09.797Z,17.77
2022-08-26T02:37:42.632Z,23.83
2022-08-26T02:38:15.259Z,31.50
2022-08-26T02:38:52.609Z,21.63
2022-08-26T02:39:24.841Z,17.55
2022-08-26T02:39:57.080Z,17.50
2022-08-26T02:40:35.764Z,12.75
2022-08-26T02:41:08.869Z,11.95
2022-08-26T02:41:45.084Z,13.93
2022-08-26T02:42:20.072Z,26.05
2022-08-26T02:42:56.052Z,20.83
2022-08-26T02:43:31.310Z,17.85
2022-08-26T02:44:07.863Z,19.67
2022-08-26T02:44:40.264Z,17.38
2022-08-26T02:45:13.123Z,14.55
2022-08-26T02:45:51.547Z,15.48
2022-08-26T02:46:27.827Z,14.90
2022-08-26T02:47:02.373Z,16.65
2022-08-26T02:47:37.591Z,24.60
2022-08-26T02:48:13.169Z,26.10
2022-08-26T02:48:45.634Z,29.13
2022-08-26T02:49:20.491Z,22.30
2022-08-26T02:49:52.710Z,19.30
2022-08-26T02:50:26.007Z,22.65
2022-08-26T02:51:02.024Z,30.00
2022-08-26T02:51:34.385Z,22.17
2022-08-26T02:52:06.619Z,15.00
2022-08-26T02:52:41.403Z,18.98
2022-08-26T02:53:14.747Z,28.08
2022-08-26T02:53:49.682Z,14.75
2022-08-26T02:54:26.035Z,22.60
2022-08-26T02:54:58.230Z,27.88
2022-08-26T02:55:31.059Z,34.30
2022-08-26T02:56:06.900Z,13.70
2022-08-26T02:56:39.298Z,15.95
2022-08-26T02:57:11.907Z,13.10
2022-08-26T02:57:46.862Z,30.27
2022-08-26T02:58:19.505Z,11.80
2022-08-26T02:58:51.744Z,14.63
2022-08-26T02:59:28.769Z,22.50
2022-08-26T03:00:02.647Z,19.83
2022-08-26T03:00:37.550Z,16.17
2022-08-26T03:01:22.882Z,16.48
2022-08-26T03:01:56.343Z,13.52
2022-08-26T03:02:28.928Z,25.85
2022-08-26T03:03:03.796Z,11.80
2022-08-26T03:03:36.115Z,21.80
2022-08-26T03:04:12.178Z,13.05
2022-08-26T03:04:57.476Z,14.77
2022-08-26T03:05:33.614Z,17.23
2022-08-26T03:06:09.355Z,15.98
2022-08-26T03:06:41.859Z,13.52
2022-08-26T03:07:16.731Z,11.82
2022-08-26T03:07:49.554Z,12.88
2022-08-26T03:08:24.545Z,28.45
2022-08-26T03:09:00.095Z,41.83
2022-08-26T03:09:32.385Z,14.57
2022-08-26T03:10:08.217Z,50.17
2022-08-26T03:10:43.599Z,32.25
2022-08-26T03:11:15.790Z,44.30
2022-08-26T03:11:48.138Z,33.80
2022-08-26T03:12:23.958Z,40.35
2022-08-26T03:12:58.245Z,41.30
2022-08-26T03:13:30.469Z,49.35
2022-08-26T03:14:06.498Z,42.92
2022-08-26T03:14:38.658Z,78.85
2022-08-26T03:15:18.020Z,76.00
2022-08-26T03:15:53.402Z,76.22
2022-08-26T03:16:25.636Z,76.00
2022-08-26T03:17:05.197Z,80.60
2022-08-26T03:17:40.884Z,91.65
2022-08-26T03:18:13.420Z,120.57
2022-08-26T03:18:52.079Z,86.28
2022-08-26T03:19:28.480Z,99.68
2022-08-26T03:20:01.530Z,82.25
2022-08-26T03:20:35.345Z,54.85
2022-08-26T03:21:11.594Z,35.67
2022-08-26T03:21:44.167Z,31.13
2022-08-26T03:22:16.336Z,32.35
2022-08-26T03:22:51.607Z,46.88
2022-08-26T03:23:23.749Z,33.97
2022-08-26T03:23:58.580Z,38.08
2022-08-26T03:24:36.136Z,68.68
2022-08-26T03:25:11.292Z,43.67
2022-08-26T03:25:43.445Z,40.55
2022-08-26T03:26:20.343Z,119.55
2022-08-26T03:26:53.257Z,42.30
2022-08-26T03:27:25.421Z,41.30
2022-08-26T03:28:00.149Z,48.42
2022-08-26T03:28:33.224Z,92.78
2022-08-26T03:29:20.943Z,27.13
2022-08-26T03:30:08.138Z,38.13
2022-08-26T03:30:45.773Z,104.28
2022-08-26T03:31:18.233Z,39.03
2022-08-26T03:31:53.734Z,73.20
2022-08-26T03:32:27.130Z,188.02
2022-08-26T03:32:59.604Z,116.32
2022-08-26T03:33:34.413Z,51.95
2022-08-26T03:34:06.614Z,78.88
2022-08-26T03:34:38.816Z,85.25
2022-08-26T03:35:13.739Z,91.82
2022-08-26T03:35:47.952Z,57.45
2022-08-26T03:36:25.822Z,75.68
2022-08-26T03:36:58.163Z,54.72
2022-08-26T03:37:30.371Z,42.25
2022-08-26T03:38:07.352Z,59.33
2022-08-26T03:38:39.942Z,62.85
2022-08-26T03:39:13.935Z,38.75
2022-08-26T03:39:51.601Z,41.22
2022-08-26T03:40:24.858Z,48.10
2022-08-26T03:41:01.302Z,63.83
2022-08-26T03:41:37.530Z,22.23
2022-08-26T03:42:10.777Z,52.92
2022-08-26T03:42:45.284Z,62.05
2022-08-26T03:43:21.675Z,42.15
2022-08-26T03:43:56.447Z,36.70
2022-08-26T03:44:31.818Z,37.08
2022-08-26T03:45:08.811Z,27.15
2022-08-26T03:45:41.266Z,31.88
2022-08-26T03:46:15.066Z,53.28
2022-08-26T03:46:49.956Z,33.75
2022-08-26T03:47:22.220Z,50.38
2022-08-26T03:47:54.639Z,28.55
2022-08-26T03:48:32.575Z,27.27
2022-08-26T03:49:06.099Z,29.35
2022-08-26T03:49:39.022Z,34.70
2022-08-26T03:50:14.214Z,39.97
2022-08-26T03:50:48.930Z,23.58
2022-08-26T03:51:24.265Z,36.85
2022-08-26T03:51:56.484Z,40.17
2022-08-26T03:52:30.979Z,24.48
2022-08-26T03:53:07.466Z,35.08
2022-08-26T03:53:45.839Z,49.88
2022-08-26T03:54:18.421Z,17.17
2022-08-26T03:54:53.190Z,27.52
2022-08-26T03:55:32.027Z,49.05
2022-08-26T03:56:04.744Z,29.55
2022-08-26T03:56:37.242Z,27.25
2022-08-26T03:57:14.795Z,33.30
2022-08-26T03:57:48.947Z,34.25
2022-08-26T03:58:22.139Z,34.60
2022-08-26T03:58:57.637Z,40.45
2022-08-26T03:59:30.761Z,34.22
2022-08-26T04:00:05.523Z,31.92
2022-08-26T04:00:43.561Z,32.85
2022-08-26T04:01:16.287Z,35.42
2022-08-26T04:01:48.677Z,25.75
2022-08-26T04:02:23.595Z,47.58
2022-08-26T04:02:56.351Z,38.53
2022-08-26T04:03:43.640Z,40.60
2022-08-26T04:04:18.516Z,32.72
2022-08-26T04:04:55.052Z,29.15
2022-08-26T04:05:27.890Z,49.05
2022-08-26T04:06:03.082Z,54.00
2022-08-26T04:06:38.144Z,40.05
2022-08-26T04:07:12.834Z,32.97
2022-08-26T04:07:45.699Z,25.63
2022-08-26T04:08:18.229Z,36.38
2022-08-26T04:08:53.102Z,34.17
2022-08-26T04:09:26.257Z,42.15
2022-08-26T04:10:04.154Z,42.28
2022-08-26T04:10:38.462Z,28.67
2022-08-26T04:11:16.928Z,37.08
2022-08-26T04:11:52.078Z,25.63
2022-08-26T04:12:25.582Z,54.08
2022-08-26T04:13:02.593Z,47.53
2022-08-26T04:13:35.093Z,38.20
2022-08-26T04:14:09.693Z,20.08
2022-08-26T04:14:44.718Z,37.28
2022-08-26T04:15:20.334Z,31.92
2022-08-26T04:15:52.498Z,49.08
2022-08-26T04:16:27.302Z,29.30
2022-08-26T04:17:00.039Z,56.28
2022-08-26T04:17:32.275Z,38.63
2022-08-26T04:18:07.358Z,33.42
2022-08-26T04:18:40.594Z,28.10
2022-08-26T04:19:20.075Z,44.53
2022-08-26T04:19:55.867Z,43.63
2022-08-26T04:20:29.584Z,41.53
2022-08-26T04:21:01.829Z,39.45
2022-08-26T04:21:38.376Z,51.20
2022-08-26T04:22:11.255Z,38.92
2022-08-26T04:22:43.606Z,88.03
2022-08-26T04:23:19.932Z,30.05
2022-08-26T04:23:52.854Z,40.25
2022-08-26T04:24:26.557Z,50.22
2022-08-26T04:25:06.819Z,53.30
2022-08-26T04:25:39.097Z,27.08
2022-08-26T04:26:12.757Z,32.30
2022-08-26T04:26:47.775Z,39.33
2022-08-26T04:27:20.051Z,36.90
2022-08-26T04:27:52.547Z,57.33
2022-08-26T04:28:27.317Z,41.00
2022-08-26T04:28:59.610Z,45.20
2022-08-26T04:29:34.951Z,64.40
2022-08-26T04:30:09.593Z,45.20
2022-08-26T04:30:41.886Z,60.72
2022-08-26T04:31:20.368Z,49.78
2022-08-26T04:31:55.644Z,57.63
2022-08-26T04:32:30.689Z,54.15
2022-08-26T04:33:04.825Z,41.85
2022-08-26T04:33:47.639Z,50.42
2022-08-26T04:34:25.096Z,44.97
2022-08-26T04:35:01.019Z,36.50
2022-08-26T04:35:35.202Z,36.63
2022-08-26T04:36:10.735Z,57.80
2022-08-26T04:36:43.415Z,65.43
2022-08-26T04:37:16.494Z,68.00
2022-08-26T04:37:52.179Z,43.35
2022-08-26T04:38:24.402Z,72.85
2022-08-26T04:38:57.179Z,56.33
2022-08-26T04:39:32.081Z,33.88
2022-08-26T04:40:10.157Z,72.25
2022-08-26T04:40:46.810Z,52.28
2022-08-26T04:41:22.455Z,55.50
2022-08-26T04:41:55.267Z,46.75
2022-08-26T04:42:27.519Z,47.28
2022-08-26T04:43:02.583Z,36.22
2022-08-26T04:43:34.847Z,50.03
2022-08-26T04:44:07.143Z,48.63
2022-08-26T04:44:41.906Z,46.72
2022-08-26T04:45:14.360Z,54.97
2022-08-26T04:45:46.859Z,36.03
2022-08-26T04:46:24.765Z,60.28
2022-08-26T04:46:57.230Z,45.13
2022-08-26T04:47:32.314Z,47.60
2022-08-26T04:48:07.395Z,52.10
2022-08-26T04:48:43.334Z,55.22
2022-08-26T04:49:18.026Z,37.08
2022-08-26T04:49:51.871Z,28.83
2022-08-26T04:50:26.606Z,46.80
2022-08-26T04:51:02.018Z,50.92
2022-08-26T04:51:34.877Z,39.17
2022-08-26T04:52:07.020Z,44.30
2022-08-26T04:52:42.803Z,51.53
2022-08-26T04:53:15.073Z,36.38
2022-08-26T04:53:47.203Z,87.65
2022-08-26T04:54:22.090Z,57.85
2022-08-26T04:54:54.250Z,51.83
2022-08-26T04:55:38.209Z,94.05
2022-08-26T04:56:14.737Z,64.55
2022-08-26T04:56:49.634Z,61.53
2022-08-26T04:57:25.297Z,36.55
2022-08-26T04:57:58.035Z,56.08
2022-08-26T04:58:30.209Z,45.17
2022-08-26T04:59:07.728Z,39.92
2022-08-26T04:59:49.538Z,25.48
2022-08-26T05:00:22.309Z,71.10
2022-08-26T05:00:59.128Z,30.08
2022-08-26T05:01:31.740Z,37.17
2022-08-26T05:02:04.547Z,47.17
2022-08-26T05:02:41.017Z,54.83
2022-08-26T05:03:15.433Z,50.00
2022-08-26T05:03:48.215Z,50.47
2022-08-26T05:04:23.472Z,39.90
2022-08-26T05:04:55.762Z,59.78
2022-08-26T05:05:28.078Z,33.55
2022-08-26T05:06:07.016Z,36.38
2022-08-26T05:06:42.091Z,58.75
2022-08-26T05:07:17.683Z,59.92
2022-08-26T05:07:50.021Z,26.60
2022-08-26T05:08:23.277Z,69.00
2022-08-26T05:08:58.150Z,51.88
2022-08-26T05:09:30.719Z,95.43
2022-08-26T05:10:04.087Z,54.15
2022-08-26T05:10:48.401Z,60.60
2022-08-26T05:11:21.451Z,60.53
2022-08-26T05:11:54.545Z,56.45
2022-08-26T05:12:29.305Z,63.53
2022-08-26T05:13:03.556Z,68.50
2022-08-26T05:13:45.886Z,68.38
2022-08-26T05:14:19.833Z,35.17
2022-08-26T05:14:52.734Z,42.05
2022-08-26T05:15:27.471Z,45.00
2022-08-26T05:16:03.468Z,44.97
2022-08-26T05:16:40.606Z,55.80
2022-08-26T05:17:14.941Z,46.17
2022-08-26T05:17:50.517Z,34.22
2022-08-26T05:18:30.100Z,76.75
2022-08-26T05:19:03.092Z,52.83
2022-08-26T05:19:38.591Z,42.55
2022-08-26T05:20:15.176Z,46.13
2022-08-26T05:20:53.954Z,42.97
2022-08-26T05:21:29.201Z,51.55
2022-08-26T05:22:03.958Z,66.40
2022-08-26T05:22:36.468Z,50.45
2022-08-26T05:23:08.883Z,40.15
2022-08-26T05:23:43.832Z,54.63
2022-08-26T05:24:18.058Z,40.78
2022-08-26T05:24:52.850Z,28.92
2022-08-26T05:25:59.144Z,73.07
2022-08-26T05:26:32.828Z,92.32
2022-08-26T05:27:11.803Z,41.53
2022-08-26T05:27:44.803Z,37.42
2022-08-26T05:28:18.725Z,30.17
2022-08-26T05:28:54.694Z,45.22
2022-08-26T05:29:27.185Z,53.22
2022-08-26T05:30:00.000Z,41.20
2022-08-26T05:30:35.957Z,38.70
2022-08-26T05:31:16.461Z,24.88
2022-08-26T05:31:56.041Z,55.40
2022-08-26T05:32:28.331Z,142.43
2022-08-26T05:33:02.043Z,71.65
2022-08-26T05:33:37.598Z,52.28
2022-08-26T05:34:13.693Z,52.30
2022-08-26T05:34:48.915Z,41.97
2022-08-26T05:35:29.228Z,80.57
2022-08-26T05:36:07.661Z,55.72
2022-08-26T05:36:44.011Z,48.25
2022-08-26T05:37:16.719Z,65.00
2022-08-26T05:37:49.486Z,35.90
2022-08-26T05:38:25.170Z,58.38
2022-08-26T05:39:04.824Z,36.97
2022-08-26T05:39:36.967Z,70.68
2022-08-26T05:40:12.773Z,108.18
2022-08-26T05:40:47.283Z,77.20
2022-08-26T05:41:25.067Z,66.00
2022-08-26T05:42:01.402Z,45.33
2022-08-26T05:42:35.163Z,32.75
2022-08-26T05:43:10.602Z,61.40
2022-08-26T05:43:45.479Z,24.52
2022-08-26T05:44:19.047Z,59.50
2022-08-26T05:44:56.354Z,43.90
2022-08-26T05:45:28.682Z,43.70
2022-08-26T05:46:06.893Z,41.33
2022-08-26T05:46:44.884Z,58.45
2022-08-26T05:47:17.136Z,53.55
2022-08-26T05:47:51.766Z,44.40
2022-08-26T05:48:26.873Z,55.97
2022-08-26T05:48:59.704Z,43.33
2022-08-26T05:49:34.954Z,34.67
2022-08-26T05:50:16.226Z,55.95
2022-08-26T05:50:50.596Z,47.00
2022-08-26T05:51:26.108Z,38.20
2022-08-26T05:51:58.449Z,38.83
2022-08-26T05:52:33.157Z,44.50
2022-08-26T05:53:06.603Z,61.08
2022-08-26T05:53:41.149Z,67.18
2022-08-26T05:54:21.771Z,38.05
2022-08-26T05:54:54.716Z,52.45
2022-08-26T05:55:26.878Z,28.05
2022-08-26T05:56:02.128Z,57.00
2022-08-26T05:56:36.912Z,41.97
2022-08-26T05:57:12.243Z,38.65
2022-08-26T05:57:44.778Z,47.88
2022-08-26T05:58:21.727Z,43.10
2022-08-26T05:58:55.060Z,51.03
2022-08-26T05:59:27.326Z,39.20
2022-08-26T06:00:02.340Z,35.70
2022-08-26T06:00:45.276Z,41.15
2022-08-26T06:01:21.407Z,44.60
2022-08-26T06:01:57.362Z,38.55
2022-08-26T06:02:30.412Z,33.58
2022-08-26T06:03:05.311Z,47.92
2022-08-26T06:03:39.612Z,44.58
2022-08-26T06:04:14.608Z,55.95
2022-08-26T06:04:47.288Z,37.33
2022-08-26T06:05:19.694Z,43.83
2022-08-26T06:05:57.177Z,33.10
2022-08-26T06:06:33.651Z,49.70
2022-08-26T06:07:06.590Z,53.40
2022-08-26T06:07:56.881Z,35.60
2022-08-26T06:08:31.646Z,59.50
2022-08-26T06:09:06.583Z,50.90
2022-08-26T06:09:44.607Z,36.58
2022-08-26T06:10:33.604Z,43.35
2022-08-26T06:11:18.692Z,54.70
2022-08-26T06:11:54.048Z,36.17
2022-08-26T06:12:28.871Z,39.60
2022-08-26T06:13:04.716Z,44.65
2022-08-26T06:13:46.694Z,34.75
2022-08-26T06:14:20.577Z,63.42
2022-08-26T06:14:55.481Z,45.55
2022-08-26T06:15:27.760Z,54.15
2022-08-26T06:16:03.277Z,47.22
2022-08-26T06:16:43.912Z,52.63
2022-08-26T06:17:16.746Z,30.65
2022-08-26T06:17:52.529Z,37.17
2022-08-26T06:18:27.587Z,33.80
2022-08-26T06:19:10.870Z,62.30
2022-08-26T06:19:46.211Z,52.92
2022-08-26T06:20:18.558Z,55.08
2022-08-26T06:20:57.683Z,41.88
2022-08-26T06:21:32.525Z,70.55
2022-08-26T06:22:27.722Z,58.25
2022-08-26T06:23:15.011Z,70.38
2022-08-26T06:24:04.146Z,45.60
2022-08-26T06:24:51.543Z,62.13
2022-08-26T06:25:38.955Z,39.53
2022-08-26T06:26:12.040Z,57.13
2022-08-26T06:26:57.305Z,67.57
2022-08-26T06:27:32.580Z,72.85
2022-08-26T06:28:05.789Z,61.53
2022-08-26T06:28:40.606Z,86.18
2022-08-26T06:29:24.451Z,65.47
2022-08-26T06:29:59.528Z,89.88
2022-08-26T06:30:32.346Z,60.67
2022-08-26T06:31:06.284Z,54.20
2022-08-26T06:31:41.238Z,61.03
2022-08-26T06:32:13.422Z,72.35
2022-08-26T06:32:45.797Z,74.35
2022-08-26T06:33:21.689Z,60.92
2022-08-26T06:33:54.372Z,57.40
2022-08-26T06:34:30.351Z,38.72
2022-08-26T06:35:06.334Z,35.10
2022-08-26T06:35:45.773Z,33.70
2022-08-26T06:36:22.195Z,57.08
2022-08-26T06:36:58.021Z,47.97
2022-08-26T06:37:30.200Z,62.75
2022-08-26T06:38:04.957Z,38.60
2022-08-26T06:38:37.318Z,53.67
2022-08-26T06:39:14.743Z,69.20
2022-08-26T06:39:47.079Z,95.57
2022-08-26T06:40:26.466Z,52.92
2022-08-26T06:40:59.830Z,67.57
2022-08-26T06:41:34.948Z,48.08
2022-08-26T06:42:11.985Z,51.80
2022-08-26T06:42:49.559Z,81.15
2022-08-26T06:43:23.883Z,46.47
2022-08-26T06:44:00.502Z,41.75
2022-08-26T06:44:32.812Z,72.95
2022-08-26T06:45:05.939Z,59.58
2022-08-26T06:45:41.282Z,75.75
2022-08-26T06:46:17.348Z,114.07
2022-08-26T06:46:52.215Z,80.45
2022-08-26T06:47:26.325Z,45.42
2022-08-26T06:47:58.802Z,47.88
2022-08-26T06:48:33.846Z,35.33
2022-08-26T06:49:06.247Z,46.17
2022-08-26T06:49:44.337Z,68.55
2022-08-26T06:50:16.751Z,43.58
2022-08-26T06:50:51.698Z,61.33
2022-08-26T06:51:26.629Z,49.72
2022-08-26T06:51:59.323Z,73.00
2022-08-26T06:52:34.993Z,51.97
2022-08-26T06:53:08.252Z,66.68
2022-08-26T06:53:45.702Z,47.15
2022-08-26T06:54:18.398Z,52.40
2022-08-26T06:54:53.230Z,78.07
2022-08-26T06:55:26.944Z,59.45
2022-08-26T06:55:59.363Z,90.80
2022-08-26T06:56:38.974Z,112.30
2022-08-26T06:57:14.354Z,87.53
2022-08-26T06:57:49.112Z,87.38
2022-08-26T06:58:23.878Z,81.28
2022-08-26T06:58:56.870Z,79.18
2022-08-26T06:59:31.680Z,107.50
2022-08-26T07:00:05.914Z,77.32
2022-08-26T07:00:42.033Z,47.72
2022-08-26T07:01:22.331Z,74.38
2022-08-26T07:01:57.250Z,68.32
2022-08-26T07:02:29.525Z,81.32
2022-08-26T07:03:01.803Z,53.70
2022-08-26T07:03:39.547Z,84.15
2022-08-26T07:04:15.778Z,63.10
2022-08-26T07:04:52.328Z,82.25
2022-08-26T07:05:32.061Z,103.85
2022-08-26T07:06:04.896Z,85.30
2022-08-26T07:06:43.187Z,58.05
2022-08-26T07:07:17.904Z,75.35
2022-08-26T07:07:54.191Z,65.65
2022-08-26T07:08:28.939Z,72.15
2022-08-26T07:09:06.022Z,50.53
2022-08-26T07:09:44.676Z,76.90
2022-08-26T07:10:17.033Z,46.55
2022-08-26T07:10:51.758Z,55.97
2022-08-26T07:11:28.547Z,49.55
2022-08-26T07:12:05.477Z,79.60
2022-08-26T07:12:41.626Z,75.65
2022-08-26T07:14:06.221Z,98.05
2022-08-26T07:14:38.479Z,57.38
2022-08-26T07:15:14.063Z,77.80
2022-08-26T07:15:47.233Z,89.75
2022-08-26T07:16:28.443Z,57.90
2022-08-26T07:17:01.990Z,45.33
2022-08-26T07:17:34.251Z,52.65
2022-08-26T07:18:09.680Z,49.15
2022-08-26T07:18:44.771Z,63.42
2022-08-26T07:19:17.620Z,40.97
2022-08-26T07:20:07.481Z,60.75
2022-08-26T07:20:40.559Z,47.45
2022-08-26T07:21:18.233Z,44.40
2022-08-26T07:21:53.503Z,47.17
2022-08-26T07:22:27.999Z,61.78
2022-08-26T07:23:00.824Z,39.30
2022-08-26T07:23:37.484Z,100.97
2022-08-26T07:24:12.895Z,119.95
2022-08-26T07:24:47.666Z,86.78
2022-08-26T07:25:20.004Z,74.18
2022-08-26T07:25:55.093Z,45.95
2022-08-26T07:26:30.466Z,76.30
2022-08-26T07:27:07.090Z,60.33
2022-08-26T07:27:43.384Z,65.60
2022-08-26T07:28:18.192Z,104.15
2022-08-26T07:28:53.460Z,50.25
2022-08-26T07:29:28.803Z,58.10
2022-08-26T07:30:01.287Z,54.05
2022-08-26T07:30:41.027Z,94.85
2022-08-26T07:31:16.260Z,51.63
2022-08-26T07:31:48.543Z,55.67
2022-08-26T07:32:23.765Z,61.53
2022-08-26T07:32:57.103Z,78.70
2022-08-26T07:33:29.803Z,75.07
2022-08-26T07:34:04.737Z,84.65
2022-08-26T07:34:37.824Z,84.45
2022-08-26T07:35:14.209Z,85.15
2022-08-26T07:35:46.483Z,55.30
2022-08-26T07:36:19.970Z,52.80
2022-08-26T07:36:55.264Z,52.15
2022-08-26T07:37:27.629Z,67.97
2022-08-26T07:38:05.518Z,52.83
2022-08-26T07:38:39.180Z,89.63